createdAt,value
2022-07-31T00:00:25.894Z,100877.66
2022-07-31T00:02:52.602Z,100873.47
2022-07-31T00:05:19.279Z,100891.81
2022-07-31T00:07:45.977Z,100882.00
2022-07-31T00:10:12.863Z,100877.00
2022-07-31T00:12:39.600Z,100879.72
2022-07-31T00:15:08.120Z,100880.19
2022-07-31T00:17:34.818Z,100884.97
2022-07-31T00:20:02.137Z,100879.50
2022-07-31T00:22:28.977Z,100872.44
2022-07-31T00:24:56.031Z,100873.56
2022-07-31T00:27:23.620Z,100876.53
2022-07-31T00:29:50.768Z,100882.88
2022-07-31T00:32:17.578Z,100874.22
2022-07-31T00:34:44.220Z,100870.09
2022-07-31T00:37:10.911Z,100878.19
2022-07-31T00:39:38.509Z,100877.72
2022-07-31T00:42:05.896Z,100869.06
2022-07-31T00:44:32.613Z,100863.47
2022-07-31T00:47:00.776Z,100868.69
2022-07-31T00:49:37.835Z,100862.19
2022-07-31T00:52:05.846Z,100862.75
2022-07-31T00:54:32.993Z,100867.53
2022-07-31T00:57:00.092Z,100867.03
2022-07-31T00:59:28.223Z,100853.63
2022-07-31T01:01:55.458Z,100856.63
2022-07-31T01:04:22.434Z,100861.88
2022-07-31T01:06:49.584Z,100865.94
2022-07-31T01:09:16.764Z,100863.84
2022-07-31T01:12:13.042Z,100866.13
2022-07-31T01:14:45.911Z,100861.53
2022-07-31T01:17:13.816Z,100868.78
2022-07-31T01:19:46.983Z,100869.47
2022-07-31T01:22:37.793Z,100870.59
2022-07-31T01:25:46.393Z,100869.53
2022-07-31T01:28:48.133Z,100865.69
2022-07-31T01:31:35.435Z,100867.47
2022-07-31T01:34:09.156Z,100869.75
2022-07-31T01:36:39.701Z,100863.81
2022-07-31T01:39:06.472Z,100859.50
2022-07-31T01:41:38.331Z,100861.06
2022-07-31T01:44:07.211Z,100858.56
2022-07-31T01:46:42.360Z,100859.19
2022-07-31T01:49:11.293Z,100851.19
2022-07-31T01:51:41.672Z,100848.53
2022-07-31T01:54:10.415Z,100848.53
2022-07-31T01:56:39.014Z,100849.31
2022-07-31T01:59:19.960Z,100854.78
2022-07-31T02:02:06.011Z,100853.84
2022-07-31T02:04:37.167Z,100856.56
2022-07-31T02:07:05.678Z,100855.44
2022-07-31T02:09:33.858Z,100847.22
2022-07-31T02:12:01.597Z,100849.84
2022-07-31T02:14:31.145Z,100855.16
2022-07-31T02:16:59.471Z,100851.97
2022-07-31T02:19:59.762Z,100850.38
2022-07-31T02:22:29.449Z,100849.91
2022-07-31T02:24:56.535Z,100849.91
2022-07-31T02:27:57.119Z,100852.75
2022-07-31T02:30:16.405Z,100841.69
2022-07-31T02:32:47.013Z,100836.25
2022-07-31T02:35:16.514Z,100832.22
2022-07-31T02:37:44.870Z,100833.69
2022-07-31T02:40:13.258Z,100829.69
2022-07-31T02:42:41.572Z,100829.22
2022-07-31T02:45:10.038Z,100831.16
2022-07-31T02:47:38.216Z,100827.78
2022-07-31T02:50:09.242Z,100829.72
2022-07-31T02:52:36.762Z,100817.19
2022-07-31T02:55:04.113Z,100824.59
2022-07-31T02:57:30.991Z,100829.25
2022-07-31T02:59:57.923Z,100830.84
2022-07-31T03:02:34.644Z,100825.38
2022-07-31T03:05:05.764Z,100822.81
2022-07-31T03:07:32.786Z,100821.88
2022-07-31T03:09:59.455Z,100817.03
2022-07-31T03:12:52.673Z,100808.56
2022-07-31T03:15:22.160Z,100807.16
2022-07-31T03:17:50.340Z,100803.94
2022-07-31T03:20:24.947Z,100809.91
2022-07-31T03:22:51.923Z,100820.06
2022-07-31T03:25:20.137Z,100824.38
2022-07-31T03:27:55.613Z,100821.16
2022-07-31T03:30:27.336Z,100826.03
2022-07-31T03:32:57.273Z,100820.88
2022-07-31T03:35:24.914Z,100819.22
2022-07-31T03:37:52.032Z,100821.00
2022-07-31T03:40:19.019Z,100822.59
2022-07-31T03:42:47.595Z,100830.31
2022-07-31T03:45:15.917Z,100821.00
2022-07-31T03:47:42.982Z,100826.59
2022-07-31T03:50:11.322Z,100821.75
2022-07-31T03:52:38.561Z,100829.31
2022-07-31T03:55:06.588Z,100829.59
2022-07-31T03:57:34.314Z,100825.72
2022-07-31T04:00:03.143Z,100832.13
2022-07-31T04:02:32.748Z,100830.06
2022-07-31T04:05:21.300Z,100834.72
2022-07-31T04:07:48.156Z,100828.59
2022-07-31T04:10:18.247Z,100831.25
2022-07-31T04:12:45.031Z,100832.03
2022-07-31T04:15:12.484Z,100836.72
2022-07-31T04:17:39.199Z,100832.31
2022-07-31T04:20:08.085Z,100830.66
2022-07-31T04:22:34.990Z,100839.81
2022-07-31T04:25:05.412Z,100847.78
2022-07-31T04:28:01.536Z,100836.22
2022-07-31T04:30:28.275Z,100841.63
2022-07-31T04:32:55.028Z,100839.03
2022-07-31T04:35:23.195Z,100830.16
2022-07-31T04:37:49.822Z,100834.50
2022-07-31T04:40:17.234Z,100834.03
2022-07-31T04:42:43.940Z,100834.69
2022-07-31T04:45:10.747Z,100837.16
2022-07-31T04:47:38.178Z,100843.34
2022-07-31T04:50:05.651Z,100847.19
2022-07-31T04:52:32.832Z,100848.44
2022-07-31T04:55:05.608Z,100847.78
2022-07-31T04:57:32.439Z,100843.81
2022-07-31T05:00:01.405Z,100850.63
2022-07-31T05:02:32.990Z,100850.44
2022-07-31T05:04:59.835Z,100844.28
2022-07-31T05:07:32.932Z,100846.56
2022-07-31T05:10:04.527Z,100852.03
2022-07-31T05:12:31.591Z,100841.41
2022-07-31T05:14:58.294Z,100844.97
2022-07-31T05:17:25.652Z,100851.88
2022-07-31T05:20:13.135Z,100851.38
2022-07-31T05:23:00.124Z,100860.13
2022-07-31T05:25:34.743Z,100855.59
2022-07-31T05:28:01.450Z,100857.78
2022-07-31T05:30:30.209Z,100868.25
2022-07-31T05:32:58.454Z,100857.88
2022-07-31T05:35:25.650Z,100862.59
2022-07-31T05:37:52.469Z,100855.94
2022-07-31T05:40:25.236Z,100858.06
2022-07-31T05:43:10.972Z,100855.41
2022-07-31T05:46:07.305Z,100854.78
2022-07-31T05:48:34.905Z,100854.84
2022-07-31T05:51:05.427Z,100854.38
2022-07-31T05:53:32.468Z,100861.66
2022-07-31T05:56:38.062Z,100855.88
2022-07-31T05:59:04.757Z,100853.25
2022-07-31T06:01:31.523Z,100857.50
2022-07-31T06:03:58.337Z,100853.94
2022-07-31T06:06:33.395Z,100848.53
2022-07-31T06:09:04.385Z,100846.97
2022-07-31T06:11:35.703Z,100853.66
2022-07-31T06:14:02.375Z,100848.66
2022-07-31T06:16:41.744Z,100844.44
2022-07-31T06:19:08.451Z,100845.88
2022-07-31T06:21:35.575Z,100855.06
2022-07-31T06:24:02.275Z,100858.06
2022-07-31T06:26:39.496Z,100853.78
2022-07-31T06:29:06.349Z,100857.13
2022-07-31T06:31:33.074Z,100851.03
2022-07-31T06:33:59.982Z,100856.88
2022-07-31T06:36:35.354Z,100856.88
2022-07-31T06:39:03.650Z,100857.09
2022-07-31T06:41:47.034Z,100859.63
2022-07-31T06:44:40.450Z,100867.81
2022-07-31T06:47:44.809Z,100874.28
2022-07-31T06:50:17.284Z,100880.03
2022-07-31T06:52:54.110Z,100874.75
2022-07-31T06:55:22.844Z,100871.59
2022-07-31T06:57:50.132Z,100875.31
2022-07-31T07:00:20.537Z,100877.19
2022-07-31T07:02:50.808Z,100874.66
2022-07-31T07:05:17.900Z,100878.69
2022-07-31T07:07:47.844Z,100866.88
2022-07-31T07:10:14.645Z,100871.59
2022-07-31T07:12:59.545Z,100870.22
2022-07-31T07:15:28.812Z,100871.06
2022-07-31T07:17:55.796Z,100867.03
2022-07-31T07:20:33.761Z,100853.13
2022-07-31T07:23:00.737Z,100853.25
2022-07-31T07:25:43.222Z,100853.88
2022-07-31T07:28:29.346Z,100852.75
2022-07-31T07:30:58.784Z,100853.16
2022-07-31T07:33:39.908Z,100856.09
2022-07-31T07:36:22.484Z,100852.13
2022-07-31T07:38:55.726Z,100858.28
2022-07-31T07:41:24.643Z,100862.03
2022-07-31T07:43:51.570Z,100854.28
2022-07-31T07:46:21.416Z,100850.75
2022-07-31T07:48:52.954Z,100850.66
2022-07-31T07:51:33.854Z,100851.75
2022-07-31T07:54:12.415Z,100846.91
2022-07-31T07:56:59.409Z,100835.97
2022-07-31T07:59:48.957Z,100841.75
2022-07-31T08:02:21.404Z,100833.34
2022-07-31T08:04:48.608Z,100833.00
2022-07-31T08:07:15.358Z,100825.63
2022-07-31T08:09:42.097Z,100828.81
2022-07-31T08:12:29.388Z,100830.69
2022-07-31T08:15:16.366Z,100821.94
2022-07-31T08:18:09.035Z,100821.13
2022-07-31T08:20:40.987Z,100816.63
2022-07-31T08:23:08.336Z,100817.75
2022-07-31T08:25:35.114Z,100813.81
2022-07-31T08:28:03.366Z,100806.84
2022-07-31T08:30:32.755Z,100801.94
2022-07-31T08:32:59.878Z,100806.28
2022-07-31T08:35:47.471Z,100801.72
2022-07-31T08:38:20.691Z,100799.00
2022-07-31T08:41:12.929Z,100790.41
2022-07-31T08:44:02.330Z,100790.69
2022-07-31T08:46:28.255Z,100777.38
2022-07-31T08:48:57.449Z,100781.25
2022-07-31T08:51:24.834Z,100785.31
2022-07-31T08:54:15.197Z,100788.19
2022-07-31T08:56:42.617Z,100792.31
2022-07-31T08:59:09.424Z,100796.25
2022-07-31T09:01:38.923Z,100793.66
2022-07-31T09:04:05.818Z,100788.28
2022-07-31T09:06:32.649Z,100785.03
2022-07-31T09:08:59.468Z,100771.91
2022-07-31T09:11:26.587Z,100776.09
2022-07-31T09:14:13.429Z,100779.91
2022-07-31T09:16:50.382Z,100782.38
2022-07-31T09:19:52.897Z,100781.84
2022-07-31T09:22:21.108Z,100776.63
2022-07-31T09:24:49.845Z,100770.88
2022-07-31T09:27:18.162Z,100759.72
2022-07-31T09:29:49.270Z,100766.34
2022-07-31T09:32:49.140Z,100758.78
2022-07-31T09:35:22.383Z,100763.25
2022-07-31T09:37:49.396Z,100762.25
2022-07-31T09:40:39.935Z,100758.56
2022-07-31T09:44:10.030Z,100761.47
2022-07-31T09:46:48.317Z,100751.25
2022-07-31T09:49:15.853Z,100758.84
2022-07-31T09:51:48.251Z,100758.56
2022-07-31T09:54:24.174Z,100748.50
2022-07-31T09:56:54.476Z,100747.91
2022-07-31T09:59:23.901Z,100735.75
2022-07-31T10:01:50.617Z,100738.19
2022-07-31T10:04:18.940Z,100732.25
2022-07-31T10:06:48.865Z,100737.94
2022-07-31T10:09:18.942Z,100731.41
2022-07-31T10:12:17.058Z,100731.66
2022-07-31T10:14:45.288Z,100728.75
2022-07-31T10:17:17.684Z,100735.41
2022-07-31T10:20:22.828Z,100728.44
2022-07-31T10:23:14.319Z,100720.38
2022-07-31T10:25:53.690Z,100703.78
2022-07-31T10:28:22.189Z,100705.84
2022-07-31T10:30:49.940Z,100711.84
2022-07-31T10:33:42.358Z,100709.03
2022-07-31T10:36:27.743Z,100701.69
2022-07-31T10:39:24.919Z,100704.53
2022-07-31T10:42:06.396Z,100703.47
2022-07-31T10:44:41.788Z,100697.25
2022-07-31T10:47:19.047Z,100696.72
2022-07-31T10:50:20.727Z,100687.09
2022-07-31T10:53:19.805Z,100684.78
2022-07-31T10:56:04.395Z,100671.22
2022-07-31T10:58:59.651Z,100669.44
2022-07-31T11:02:01.999Z,100661.75
2022-07-31T11:05:13.483Z,100664.56
2022-07-31T11:08:07.832Z,100656.06
2022-07-31T11:10:56.430Z,100643.78
2022-07-31T11:13:49.675Z,100643.94
2022-07-31T11:16:54.047Z,100639.19
2022-07-31T11:19:44.695Z,100639.66
2022-07-31T11:22:32.526Z,100641.72
2022-07-31T11:25:00.735Z,100629.09
2022-07-31T11:27:32.409Z,100621.00
2022-07-31T11:30:12.422Z,100618.47
2022-07-31T11:32:47.151Z,100611.91
2022-07-31T11:35:25.171Z,100615.34
2022-07-31T11:37:58.048Z,100610.94
2022-07-31T11:40:27.949Z,100610.75
2022-07-31T11:43:25.224Z,100607.44
2022-07-31T11:45:53.009Z,100609.31
2022-07-31T11:48:26.538Z,100602.00
2022-07-31T11:50:54.647Z,100589.13
2022-07-31T11:53:21.863Z,100581.75
2022-07-31T11:55:51.304Z,100576.97
2022-07-31T11:58:21.025Z,100570.00
2022-07-31T12:00:52.604Z,100570.84
2022-07-31T12:03:26.649Z,100566.88
2022-07-31T12:05:53.478Z,100570.31
2022-07-31T12:08:21.900Z,100563.56
2022-07-31T12:10:49.401Z,100551.69
2022-07-31T12:13:19.018Z,100548.03
2022-07-31T12:16:06.608Z,100551.41
2022-07-31T12:18:54.098Z,100550.22
2022-07-31T12:21:30.399Z,100552.34
2022-07-31T12:23:58.308Z,100546.22
2022-07-31T12:26:33.170Z,100538.03
2022-07-31T12:29:10.928Z,100536.09
2022-07-31T12:31:51.675Z,100523.72
2022-07-31T12:34:43.569Z,100525.16
2022-07-31T12:37:12.591Z,100525.16
2022-07-31T12:39:59.393Z,100520.00
2022-07-31T12:42:32.384Z,100515.03
2022-07-31T12:45:18.175Z,100515.50
2022-07-31T12:47:52.149Z,100518.25
2022-07-31T12:50:23.817Z,100523.13
2022-07-31T12:52:50.606Z,100511.50
2022-07-31T12:55:17.742Z,100518.13
2022-07-31T12:57:51.042Z,100506.38
2022-07-31T13:00:23.476Z,100499.47
2022-07-31T13:02:56.776Z,100506.78
2022-07-31T13:05:23.966Z,100504.13
2022-07-31T13:07:51.135Z,100502.91
2022-07-31T13:10:21.540Z,100487.19
2022-07-31T13:12:51.386Z,100487.44
2022-07-31T13:15:20.015Z,100486.72
2022-07-31T13:17:53.314Z,100474.13
2022-07-31T13:20:20.091Z,100477.31
2022-07-31T13:22:46.858Z,100474.34
2022-07-31T13:25:13.745Z,100472.81
2022-07-31T13:27:41.454Z,100467.22
2022-07-31T13:30:09.650Z,100464.84
2022-07-31T13:32:36.883Z,100465.22
2022-07-31T13:35:19.596Z,100463.09
2022-07-31T13:37:51.669Z,100464.19
2022-07-31T13:40:19.627Z,100454.13
2022-07-31T13:42:46.270Z,100443.84
2022-07-31T13:45:12.906Z,100449.44
2022-07-31T13:47:51.760Z,100439.75
2022-07-31T13:50:19.330Z,100447.94
2022-07-31T13:52:46.098Z,100443.38
2022-07-31T13:55:12.893Z,100437.63
2022-07-31T13:57:39.588Z,100438.56
2022-07-31T14:00:07.375Z,100449.88
2022-07-31T14:02:34.262Z,100444.47
2022-07-31T14:05:01.038Z,100440.84
2022-07-31T14:07:45.084Z,100443.13
2022-07-31T14:10:15.924Z,100435.19
2022-07-31T14:12:45.493Z,100431.44
2022-07-31T14:15:12.460Z,100423.34
2022-07-31T14:17:39.082Z,100422.47
2022-07-31T14:20:06.704Z,100421.63
2022-07-31T14:22:33.372Z,100421.13
2022-07-31T14:25:00.570Z,100423.94
2022-07-31T14:27:27.312Z,100411.22
2022-07-31T14:29:54.120Z,100418.31
2022-07-31T14:32:22.273Z,100415.91
2022-07-31T14:34:50.114Z,100409.66
2022-07-31T14:37:16.919Z,100411.84
2022-07-31T14:39:43.799Z,100405.31
2022-07-31T14:42:11.159Z,100403.44
2022-07-31T14:44:40.182Z,100408.38
2022-07-31T14:47:07.161Z,100408.44
2022-07-31T14:50:07.378Z,100405.84
2022-07-31T14:52:21.315Z,100401.69
2022-07-31T14:54:47.930Z,100402.16
2022-07-31T14:57:20.114Z,100406.13
2022-07-31T14:59:50.389Z,100414.78
2022-07-31T15:02:22.312Z,100408.44
2022-07-31T15:04:50.987Z,100402.16
2022-07-31T15:07:34.823Z,100402.47
2022-07-31T15:10:04.807Z,100400.19
2022-07-31T15:12:31.683Z,100381.31
2022-07-31T15:14:58.439Z,100405.38
2022-07-31T15:17:25.238Z,100394.56
2022-07-31T15:19:52.322Z,100396.38
2022-07-31T15:22:19.540Z,100398.97
2022-07-31T15:24:49.180Z,100402.09
2022-07-31T15:27:21.844Z,100401.53
2022-07-31T15:30:05.127Z,100398.63
2022-07-31T15:32:39.061Z,100394.19
2022-07-31T15:35:08.459Z,100394.63
2022-07-31T15:37:37.333Z,100388.25
2022-07-31T15:40:07.141Z,100392.00
2022-07-31T15:42:40.569Z,100393.13
2022-07-31T15:45:12.805Z,100393.50
2022-07-31T15:47:39.883Z,100387.50
2022-07-31T15:50:07.949Z,100376.88
2022-07-31T15:52:34.641Z,100380.38
2022-07-31T15:55:01.831Z,100381.53
2022-07-31T15:57:28.586Z,100372.03
2022-07-31T15:59:55.611Z,100378.34
2022-07-31T16:02:23.798Z,100377.63
2022-07-31T16:04:53.467Z,100368.13
2022-07-31T16:08:32.244Z,100366.66
2022-07-31T16:10:15.683Z,100372.34
2022-07-31T16:12:45.408Z,100365.69
2022-07-31T16:15:12.815Z,100369.34
2022-07-31T16:17:40.624Z,100370.16
2022-07-31T16:20:25.991Z,100367.81
2022-07-31T16:22:56.870Z,100373.44
2022-07-31T16:25:26.237Z,100362.44
2022-07-31T16:27:53.063Z,100359.81
2022-07-31T16:30:19.928Z,100361.47
2022-07-31T16:32:46.665Z,100356.78
2022-07-31T16:35:13.644Z,100352.84
2022-07-31T16:37:49.889Z,100350.06
2022-07-31T16:40:30.068Z,100355.75
2022-07-31T16:43:48.331Z,100354.28
2022-07-31T16:45:57.565Z,100350.34
2022-07-31T16:48:24.668Z,100359.88
2022-07-31T16:50:54.020Z,100352.72
2022-07-31T16:54:09.936Z,100366.28
2022-07-31T16:56:11.720Z,100363.94
2022-07-31T16:58:38.509Z,100360.00
2022-07-31T17:01:06.241Z,100362.44
2022-07-31T17:04:00.070Z,100361.72
2022-07-31T17:06:36.722Z,100360.16
2022-07-31T17:09:16.499Z,100361.75
2022-07-31T17:11:45.972Z,100370.84
2022-07-31T17:14:12.657Z,100355.44
2022-07-31T17:16:42.214Z,100360.19
2022-07-31T17:19:11.534Z,100365.34
2022-07-31T17:21:44.433Z,100370.13
2022-07-31T17:24:15.940Z,100357.88
2022-07-31T17:26:44.076Z,100359.47
2022-07-31T17:29:12.035Z,100362.66
2022-07-31T17:31:38.691Z,100372.13
2022-07-31T17:34:09.279Z,100365.00
2022-07-31T17:36:36.847Z,100371.34
2022-07-31T17:39:04.263Z,100372.53
2022-07-31T17:41:32.553Z,100372.13
2022-07-31T17:43:59.715Z,100378.44
2022-07-31T17:46:34.233Z,100378.81
2022-07-31T17:49:02.000Z,100370.16
2022-07-31T17:51:28.801Z,100381.19
2022-07-31T17:53:59.480Z,100370.16
2022-07-31T17:56:26.929Z,100378.44
2022-07-31T17:58:53.904Z,100381.53
2022-07-31T18:01:24.398Z,100380.72
2022-07-31T18:03:53.965Z,100390.59
2022-07-31T18:06:20.654Z,100381.50
2022-07-31T18:08:47.369Z,100392.53
2022-07-31T18:11:14.150Z,100393.31
2022-07-31T18:13:48.612Z,100395.28
2022-07-31T18:16:19.108Z,100396.47
2022-07-31T18:18:46.090Z,100398.41
2022-07-31T18:21:13.382Z,100405.88
2022-07-31T18:23:47.317Z,100411.34
2022-07-31T18:26:14.326Z,100412.91
2022-07-31T18:28:41.205Z,100419.97
2022-07-31T18:31:32.288Z,100416.00
2022-07-31T18:33:55.342Z,100420.72
2022-07-31T18:36:23.021Z,100416.38
2022-07-31T18:38:51.913Z,100421.88
2022-07-31T18:41:19.050Z,100425.00
2022-07-31T18:43:45.748Z,100422.19
2022-07-31T18:46:12.642Z,100423.75
2022-07-31T18:48:39.488Z,100431.19
2022-07-31T18:51:06.302Z,100427.63
2022-07-31T18:53:33.534Z,100420.47
2022-07-31T18:56:00.547Z,100428.31
2022-07-31T18:58:27.447Z,100425.91
2022-07-31T19:00:55.428Z,100432.97
2022-07-31T19:03:26.007Z,100431.75
2022-07-31T19:05:53.183Z,100435.25
2022-07-31T19:08:20.676Z,100439.16
2022-07-31T19:10:49.825Z,100435.19
2022-07-31T19:13:18.808Z,100443.00
2022-07-31T19:15:52.934Z,100445.31
2022-07-31T19:18:28.085Z,100435.81
2022-07-31T19:21:23.395Z,100448.78
2022-07-31T19:23:45.682Z,100447.13
2022-07-31T19:26:12.669Z,100451.44
2022-07-31T19:28:42.378Z,100449.84
2022-07-31T19:31:10.474Z,100457.72
2022-07-31T19:33:38.206Z,100458.44
2022-07-31T19:36:06.611Z,100459.22
2022-07-31T19:38:38.008Z,100454.84
2022-07-31T19:41:05.016Z,100461.47
2022-07-31T19:43:33.114Z,100463.81
2022-07-31T19:46:11.249Z,100464.56
2022-07-31T19:48:41.921Z,100472.00
2022-07-31T19:51:09.985Z,100482.59
2022-07-31T19:53:37.403Z,100488.84
2022-07-31T19:56:07.314Z,100487.66
2022-07-31T19:58:36.398Z,100493.13
2022-07-31T20:01:05.193Z,100491.94
2022-07-31T20:03:31.994Z,100498.22
2022-07-31T20:05:58.870Z,100494.63
2022-07-31T20:08:25.615Z,100498.91
2022-07-31T20:10:52.879Z,100496.53
2022-07-31T20:13:19.633Z,100496.13
2022-07-31T20:15:51.247Z,100497.63
2022-07-31T20:18:29.841Z,100496.44
2022-07-31T20:21:05.153Z,100496.38
2022-07-31T20:23:34.235Z,100497.91
2022-07-31T20:26:01.597Z,100494.28
2022-07-31T20:28:28.386Z,100498.44
2022-07-31T20:30:55.073Z,100501.63
2022-07-31T20:33:21.809Z,100496.13
2022-07-31T20:35:50.244Z,100491.38
2022-07-31T20:38:22.240Z,100498.78
2022-07-31T20:40:54.675Z,100502.25
2022-07-31T20:43:28.189Z,100504.16
2022-07-31T20:45:59.433Z,100501.78
2022-07-31T20:48:32.254Z,100499.41
2022-07-31T20:51:03.947Z,100501.31
2022-07-31T20:53:31.901Z,100507.19
2022-07-31T20:55:59.358Z,100509.16
2022-07-31T20:58:26.298Z,100496.94
2022-07-31T21:00:53.668Z,100502.03
2022-07-31T21:03:20.620Z,100497.19
2022-07-31T21:05:47.985Z,100505.41
2022-07-31T21:08:15.873Z,100507.25
2022-07-31T21:10:42.962Z,100518.56
2022-07-31T21:13:09.989Z,100516.56
2022-07-31T21:15:42.868Z,100516.13
2022-07-31T21:18:19.496Z,100520.34
2022-07-31T21:20:52.045Z,100519.44
2022-07-31T21:23:27.010Z,100521.31
2022-07-31T21:25:56.526Z,100526.38
2022-07-31T21:28:25.451Z,100533.44
2022-07-31T21:30:54.002Z,100526.28
2022-07-31T21:33:20.923Z,100529.38
2022-07-31T21:35:48.193Z,100525.41
2022-07-31T21:38:15.999Z,100537.13
2022-07-31T21:40:43.921Z,100539.47
2022-07-31T21:43:12.471Z,100538.72
2022-07-31T21:45:55.483Z,100546.66
2022-07-31T21:48:26.904Z,100551.44
2022-07-31T21:50:54.643Z,100545.22
2022-07-31T21:53:22.355Z,100558.69
2022-07-31T21:55:49.502Z,100546.94
2022-07-31T21:58:17.021Z,100548.53
2022-07-31T22:00:44.517Z,100553.19
2022-07-31T22:03:11.508Z,100560.13
2022-07-31T22:05:56.723Z,100564.47
2022-07-31T22:08:23.346Z,100568.75
2022-07-31T22:10:51.524Z,100562.44
2022-07-31T22:13:19.641Z,100565.13
2022-07-31T22:15:58.828Z,100567.81
2022-07-31T22:18:32.161Z,100573.25
2022-07-31T22:21:00.264Z,100566.97
2022-07-31T22:23:27.912Z,100567.00
2022-07-31T22:25:55.190Z,100571.72
2022-07-31T22:28:23.559Z,100571.72
2022-07-31T22:30:52.127Z,100571.72
2022-07-31T22:33:19.243Z,100579.53
2022-07-31T22:35:58.566Z,100577.97
2022-07-31T22:38:27.946Z,100576.72
2022-07-31T22:40:55.057Z,100581.00
2022-07-31T22:44:09.390Z,100576.22
2022-07-31T22:46:12.002Z,100584.75
2022-07-31T22:48:40.879Z,100582.13
2022-07-31T22:51:08.706Z,100590.47
2022-07-31T22:53:36.195Z,100592.81
2022-07-31T22:56:03.167Z,100588.94
2022-07-31T22:58:29.839Z,100592.81
2022-07-31T23:00:56.493Z,100602.16
2022-07-31T23:03:23.155Z,100608.63
2022-07-31T23:06:05.238Z,100612.03
2022-07-31T23:08:36.484Z,100604.88
2022-07-31T23:11:03.471Z,100608.72
2022-07-31T23:13:30.110Z,100614.91
2022-07-31T23:15:56.780Z,100614.91
2022-07-31T23:18:23.549Z,100621.66
2022-07-31T23:20:50.214Z,100621.13
2022-07-31T23:23:16.835Z,100618.59
2022-07-31T23:25:43.501Z,100616.88
2022-07-31T23:28:10.221Z,100622.19
2022-07-31T23:30:36.852Z,100621.13
2022-07-31T23:33:03.531Z,100626.97
2022-07-31T23:35:30.177Z,100626.44
2022-07-31T23:37:56.900Z,100629.63
2022-07-31T23:40:23.591Z,100633.53
2022-07-31T23:42:50.266Z,100629.56
2022-07-31T23:45:16.892Z,100627.94
2022-07-31T23:47:45.135Z,100635.28
2022-07-31T23:50:13.495Z,100631.56
2022-07-31T23:52:40.476Z,100627.41
2022-07-31T23:55:07.487Z,100632.13
2022-07-31T23:57:34.289Z,100624.69
